createdAt,value
2022-08-23T00:00:05.616Z,86.32
2022-08-23T00:01:03.405Z,86.22
2022-08-23T00:02:03.158Z,86.26
2022-08-23T00:03:03.855Z,85.96
2022-08-23T00:04:04.550Z,85.96
2022-08-23T00:05:09.056Z,85.85
2022-08-23T00:06:06.127Z,86.05
2022-08-23T00:07:07.012Z,86.16
2022-08-23T00:08:07.896Z,85.75
2022-08-23T00:09:08.783Z,85.96
2022-08-23T00:10:09.677Z,86.36
2022-08-23T00:11:10.562Z,86.81
2022-08-23T00:12:11.440Z,86.81
2022-08-23T00:13:12.328Z,87.02
2022-08-23T00:14:13.203Z,87.22
2022-08-23T00:15:14.097Z,87.53
2022-08-23T00:16:14.981Z,87.88
2022-08-23T00:17:33.482Z,87.88
2022-08-23T00:18:17.633Z,87.98
2022-08-23T00:19:17.523Z,88.39
2022-08-23T00:20:18.421Z,88.49
2022-08-23T00:21:19.303Z,88.80
2022-08-23T00:22:20.184Z,88.49
2022-08-23T00:23:21.070Z,88.70
2022-08-23T00:24:21.943Z,89.21
2022-08-23T00:25:22.838Z,89.00
2022-08-23T00:26:23.720Z,89.42
2022-08-23T00:27:24.603Z,89.42
2022-08-23T00:28:25.488Z,89.62
2022-08-23T00:29:26.376Z,90.23
2022-08-23T00:30:27.270Z,90.34
2022-08-23T00:31:28.147Z,90.64
2022-08-23T00:32:29.031Z,90.64
2022-08-23T00:33:29.918Z,91.05
2022-08-23T00:34:30.821Z,90.95
2022-08-23T00:35:31.738Z,90.84
2022-08-23T00:36:32.627Z,90.95
2022-08-23T00:37:33.581Z,90.75
2022-08-23T00:38:35.195Z,90.64
2022-08-23T00:39:35.138Z,90.03
2022-08-23T00:40:36.041Z,89.62
2022-08-23T00:41:36.920Z,89.42
2022-08-23T00:42:37.798Z,89.42
2022-08-23T00:43:38.680Z,89.31
2022-08-23T00:44:39.576Z,88.90
2022-08-23T00:45:40.471Z,88.59
2022-08-23T00:46:41.345Z,88.59
2022-08-23T00:47:45.033Z,88.18
2022-08-23T00:48:42.941Z,88.18
2022-08-23T00:49:43.824Z,87.88
2022-08-23T00:50:44.724Z,87.88
2022-08-23T00:51:52.769Z,87.67
2022-08-23T00:52:47.429Z,87.06
2022-08-23T00:53:47.301Z,87.37
2022-08-23T00:54:48.175Z,87.30
2022-08-23T00:55:49.091Z,87.20
2022-08-23T00:56:50.048Z,87.41
2022-08-23T00:57:50.887Z,87.51
2022-08-23T00:58:51.796Z,87.61
2022-08-23T00:59:52.700Z,88.53
2022-08-23T01:00:53.604Z,88.43
2022-08-23T01:01:54.540Z,88.78
2022-08-23T01:02:55.413Z,89.09
2022-08-23T01:03:59.196Z,89.09
2022-08-23T01:04:58.067Z,89.50
2022-08-23T01:05:57.968Z,89.29
2022-08-23T01:06:58.847Z,89.23
2022-08-23T01:07:59.873Z,89.64
2022-08-23T01:09:00.255Z,89.84
2022-08-23T01:10:03.409Z,89.64
2022-08-23T01:11:01.831Z,89.43
2022-08-23T01:12:03.592Z,89.13
2022-08-23T01:13:03.468Z,89.33
2022-08-23T01:14:04.451Z,89.33
2022-08-23T01:15:05.264Z,89.23
2022-08-23T01:16:06.148Z,89.13
2022-08-23T01:17:07.046Z,88.92
2022-08-23T01:18:07.916Z,88.92
2022-08-23T01:19:08.800Z,88.92
2022-08-23T01:20:10.332Z,89.43
2022-08-23T01:21:10.515Z,89.33
2022-08-23T01:22:11.029Z,89.13
2022-08-23T01:23:11.912Z,89.43
2022-08-23T01:24:19.221Z,89.33
2022-08-23T01:25:14.569Z,89.43
2022-08-23T01:26:14.456Z,89.33
2022-08-23T01:27:16.232Z,89.23
2022-08-23T01:28:16.106Z,89.54
2022-08-23T01:29:16.989Z,89.54
2022-08-23T01:30:17.871Z,89.33
2022-08-23T01:31:18.771Z,89.23
2022-08-23T01:32:19.653Z,89.54
2022-08-23T01:33:20.533Z,89.43
2022-08-23T01:34:21.411Z,89.64
2022-08-23T01:36:23.144Z,90.46
2022-08-23T01:37:24.028Z,90.81
2022-08-23T01:38:24.915Z,91.22
2022-08-23T01:39:25.623Z,91.53
2022-08-23T01:40:26.683Z,91.63
2022-08-23T01:41:27.072Z,91.02
2022-08-23T01:42:27.954Z,91.02
2022-08-23T01:43:28.829Z,90.50
2022-08-23T01:44:29.711Z,90.30
2022-08-23T01:45:30.603Z,90.09
2022-08-23T01:46:31.496Z,89.89
2022-08-23T01:47:32.377Z,89.58
2022-08-23T01:48:33.258Z,89.27
2022-08-23T01:49:34.141Z,89.37
2022-08-23T01:50:35.024Z,89.37
2022-08-23T01:51:35.924Z,89.37
2022-08-23T01:52:36.814Z,89.17
2022-08-23T01:53:37.689Z,88.96
2022-08-23T01:54:38.571Z,88.86
2022-08-23T01:55:39.446Z,88.86
2022-08-23T01:56:40.336Z,88.96
2022-08-23T01:57:41.220Z,88.86
2022-08-23T01:58:42.119Z,88.96
2022-08-23T01:59:42.997Z,89.07
2022-08-23T02:00:43.939Z,88.96
2022-08-23T02:01:44.885Z,89.17
2022-08-23T02:02:45.730Z,89.37
2022-08-23T02:03:46.621Z,89.69
2022-08-23T02:04:47.395Z,89.42
2022-08-23T02:05:48.357Z,89.31
2022-08-23T02:06:49.217Z,89.42
2022-08-23T02:07:50.104Z,89.42
2022-08-23T02:08:52.506Z,89.21
2022-08-23T02:09:51.877Z,89.31
2022-08-23T02:10:52.780Z,89.42
2022-08-23T02:11:53.680Z,89.31
2022-08-23T02:12:54.591Z,89.31
2022-08-23T02:13:55.457Z,89.42
2022-08-23T02:14:56.340Z,89.87
2022-08-23T02:15:57.252Z,90.59
2022-08-23T02:17:03.457Z,90.69
2022-08-23T02:18:00.075Z,90.48
2022-08-23T02:18:59.509Z,90.59
2022-08-23T02:20:00.399Z,91.00
2022-08-23T02:21:01.369Z,90.80
2022-08-23T02:22:02.199Z,90.80
2022-08-23T02:23:03.082Z,90.69
2022-08-23T02:24:03.972Z,90.48
2022-08-23T02:25:04.465Z,90.28
2022-08-23T02:26:05.356Z,90.18
2022-08-23T02:27:06.228Z,90.18
2022-08-23T02:28:07.123Z,89.97
2022-08-23T02:29:07.995Z,90.18
2022-08-23T02:30:08.880Z,90.48
2022-08-23T02:31:09.800Z,91.10
2022-08-23T02:32:10.739Z,91.72
2022-08-23T02:33:11.715Z,91.93
2022-08-23T02:37:02.064Z,92.95
2022-08-23T02:38:02.973Z,93.05
2022-08-23T02:39:03.873Z,93.16
2022-08-23T02:40:04.835Z,93.92
2022-08-23T02:41:05.716Z,93.46
2022-08-23T02:42:06.634Z,93.57
2022-08-23T02:43:07.540Z,93.05
2022-08-23T02:44:08.450Z,92.44
2022-08-23T02:45:09.351Z,92.54
2022-08-23T02:46:10.297Z,92.33
2022-08-23T02:47:11.196Z,92.23
2022-08-23T02:48:12.098Z,91.72
2022-08-23T02:49:13.007Z,91.51
2022-08-23T02:50:13.904Z,91.10
2022-08-23T02:51:14.821Z,91.00
2022-08-23T02:52:15.729Z,90.89
2022-08-23T02:53:16.649Z,91.00
2022-08-23T02:54:17.557Z,91.10
2022-08-23T02:55:18.546Z,91.72
2022-08-23T02:56:21.481Z,91.41
2022-08-23T02:57:20.394Z,92.23
2022-08-23T02:58:21.297Z,92.13
2022-08-23T02:59:22.209Z,91.93
2022-08-23T03:00:23.106Z,91.72
2022-08-23T03:01:24.020Z,92.23
2022-08-23T03:02:25.013Z,92.44
2022-08-23T03:03:25.914Z,92.54
2022-08-23T03:04:26.817Z,92.64
2022-08-23T03:05:27.732Z,92.95
2022-08-23T03:06:28.653Z,92.64
2022-08-23T03:07:29.552Z,92.54
2022-08-23T03:08:30.457Z,92.54
2022-08-23T03:09:31.376Z,92.23
2022-08-23T03:10:32.290Z,92.33
2022-08-23T03:11:33.199Z,92.13
2022-08-23T03:12:34.101Z,92.27
2022-08-23T03:13:35.008Z,92.48
2022-08-23T03:14:35.914Z,92.79
2022-08-23T03:15:36.727Z,92.79
2022-08-23T03:16:37.649Z,92.99
2022-08-23T03:17:38.541Z,93.14
2022-08-23T03:18:39.445Z,93.04
2022-08-23T03:19:40.351Z,92.93
2022-08-23T03:20:41.255Z,93.04
2022-08-23T03:21:43.394Z,93.44
2022-08-23T03:22:48.347Z,93.35
2022-08-23T03:23:44.628Z,92.83
2022-08-23T03:24:44.533Z,92.79
2022-08-23T03:25:45.439Z,93.20
2022-08-23T03:26:46.353Z,92.99
2022-08-23T03:27:47.263Z,92.89
2022-08-23T03:28:48.169Z,92.99
2022-08-23T03:29:49.085Z,92.69
2022-08-23T03:30:49.967Z,92.89
2022-08-23T03:31:50.862Z,92.07
2022-08-23T03:32:51.685Z,91.76
2022-08-23T03:33:52.570Z,91.86
2022-08-23T03:34:53.452Z,91.55
2022-08-23T03:35:54.350Z,91.25
2022-08-23T03:36:55.228Z,91.35
2022-08-23T03:37:56.129Z,91.29
2022-08-23T03:38:56.983Z,91.49
2022-08-23T03:39:57.903Z,91.91
2022-08-23T03:40:58.770Z,92.01
2022-08-23T03:41:59.673Z,92.21
2022-08-23T03:43:00.242Z,92.52
2022-08-23T03:44:01.147Z,92.63
2022-08-23T03:45:02.494Z,92.83
2022-08-23T03:46:02.653Z,92.42
2022-08-23T03:47:03.552Z,92.11
2022-08-23T03:48:04.433Z,91.80
2022-08-23T03:49:05.311Z,91.49
2022-08-23T03:50:06.202Z,91.80
2022-08-23T03:51:07.079Z,91.70
2022-08-23T03:52:07.972Z,91.29
2022-08-23T03:53:09.043Z,91.08
2022-08-23T03:54:09.439Z,90.98
2022-08-23T03:55:10.341Z,91.23
2022-08-23T03:56:11.249Z,91.23
2022-08-23T03:57:12.153Z,91.02
2022-08-23T03:58:13.055Z,91.33
2022-08-23T03:59:13.961Z,91.02
2022-08-23T04:00:14.854Z,90.81
2022-08-23T04:01:16.558Z,91.02
2022-08-23T04:02:16.519Z,91.02
2022-08-23T04:03:16.985Z,90.92
2022-08-23T04:04:17.867Z,90.81
2022-08-23T04:05:18.711Z,91.02
2022-08-23T04:06:19.579Z,91.13
2022-08-23T04:07:20.399Z,91.23
2022-08-23T04:08:31.911Z,91.33
2022-08-23T04:09:23.053Z,91.23
2022-08-23T04:10:22.893Z,91.53
2022-08-23T04:11:23.732Z,92.20
2022-08-23T04:12:24.571Z,92.20
2022-08-23T04:13:25.407Z,92.71
2022-08-23T04:14:26.073Z,93.02
2022-08-23T04:15:26.897Z,93.02
2022-08-23T04:16:27.776Z,93.12
2022-08-23T04:17:32.285Z,93.43
2022-08-23T04:18:29.406Z,94.05
2022-08-23T04:19:30.240Z,94.05
2022-08-23T04:20:31.129Z,93.84
2022-08-23T04:21:32.013Z,94.26
2022-08-23T04:22:32.801Z,94.15
2022-08-23T04:23:33.634Z,93.64
2022-08-23T04:24:34.460Z,94.46
2022-08-23T04:25:35.966Z,94.77
2022-08-23T04:26:36.262Z,94.77
2022-08-23T04:27:37.004Z,94.26
2022-08-23T04:28:37.828Z,93.84
2022-08-23T04:29:38.656Z,93.84
2022-08-23T04:30:39.516Z,93.84
2022-08-23T04:31:40.335Z,93.95
2022-08-23T04:32:41.115Z,93.95
2022-08-23T04:33:41.851Z,93.74
2022-08-23T04:34:43.002Z,93.54
2022-08-23T04:35:43.487Z,93.33
2022-08-23T04:36:45.992Z,93.33
2022-08-23T04:37:46.040Z,93.08
2022-08-23T04:38:45.863Z,93.02
2022-08-23T04:39:46.721Z,93.23
2022-08-23T04:40:48.424Z,93.23
2022-08-23T04:41:48.252Z,93.64
2022-08-23T04:42:49.081Z,93.54
2022-08-23T04:43:49.905Z,92.97
2022-08-23T04:44:50.784Z,92.87
2022-08-23T04:45:51.621Z,92.87
2022-08-23T04:46:52.443Z,92.87
2022-08-23T04:47:53.278Z,93.23
2022-08-23T04:48:54.115Z,93.74
2022-08-23T04:49:54.936Z,94.46
2022-08-23T04:50:55.826Z,94.87
2022-08-23T04:51:56.648Z,95.08
2022-08-23T04:52:57.465Z,95.43
2022-08-23T04:53:58.307Z,95.43
2022-08-23T04:54:59.133Z,95.23
2022-08-23T04:55:59.961Z,95.43
2022-08-23T04:57:00.782Z,95.23
2022-08-23T04:58:01.929Z,95.12
2022-08-23T04:59:02.385Z,95.12
2022-08-23T05:00:03.226Z,95.02
2022-08-23T05:01:04.200Z,94.71
2022-08-23T05:02:05.025Z,94.51
2022-08-23T05:03:05.864Z,94.20
2022-08-23T05:04:06.678Z,94.20
2022-08-23T05:05:07.521Z,94.36
2022-08-23T05:06:08.349Z,94.05
2022-08-23T05:07:09.177Z,93.84
2022-08-23T05:08:10.014Z,93.84
2022-08-23T05:09:10.908Z,93.99
2022-08-23T05:10:11.712Z,94.30
2022-08-23T05:11:12.535Z,94.71
2022-08-23T05:12:13.394Z,95.02
2022-08-23T05:13:14.219Z,95.43
2022-08-23T05:14:15.053Z,95.95
2022-08-23T05:15:15.907Z,96.05
2022-08-23T05:16:16.726Z,96.56
2022-08-23T05:17:17.553Z,97.02
2022-08-23T05:18:18.384Z,97.23
2022-08-23T05:19:19.212Z,97.69
2022-08-23T05:20:20.060Z,97.90
2022-08-23T05:21:20.882Z,97.69
2022-08-23T05:22:21.724Z,98.00
2022-08-23T05:23:23.520Z,97.69
2022-08-23T05:24:24.260Z,97.69
2022-08-23T05:25:24.098Z,97.69
2022-08-23T05:26:24.946Z,97.49
2022-08-23T05:27:25.756Z,97.28
2022-08-23T05:28:26.582Z,97.28
2022-08-23T05:29:27.406Z,97.28
2022-08-23T05:30:28.296Z,97.08
2022-08-23T05:31:29.135Z,96.88
2022-08-23T05:32:33.361Z,96.97
2022-08-23T05:33:30.456Z,97.08
2022-08-23T05:34:31.325Z,97.08
2022-08-23T05:35:32.162Z,97.08
2022-08-23T05:36:32.988Z,96.97
2022-08-23T05:37:33.817Z,96.97
2022-08-23T05:38:34.655Z,96.77
2022-08-23T05:39:37.059Z,96.88
2022-08-23T05:40:36.100Z,96.97
2022-08-23T05:41:38.420Z,97.08
2022-08-23T05:42:37.896Z,97.39
2022-08-23T05:43:38.725Z,96.97
2022-08-23T05:44:39.556Z,97.39
2022-08-23T05:45:40.394Z,97.49
2022-08-23T05:46:40.975Z,98.11
2022-08-23T05:47:41.715Z,98.88
2022-08-23T05:48:42.534Z,98.88
2022-08-23T05:49:43.370Z,98.68
2022-08-23T05:50:44.216Z,98.47
2022-08-23T05:51:45.039Z,98.33
2022-08-23T05:52:50.803Z,98.12
2022-08-23T05:53:46.394Z,98.02
2022-08-23T05:54:47.215Z,97.91
2022-08-23T05:55:48.054Z,97.66
2022-08-23T05:56:48.882Z,97.45
2022-08-23T05:57:49.704Z,97.15
2022-08-23T05:58:50.559Z,97.25
2022-08-23T05:59:51.357Z,97.05
2022-08-23T06:00:52.239Z,96.84
2022-08-23T06:01:53.032Z,96.73
2022-08-23T06:02:53.858Z,96.59
2022-08-23T06:03:54.685Z,96.69
2022-08-23T06:04:57.389Z,96.59
2022-08-23T06:05:56.485Z,96.28
2022-08-23T06:06:57.281Z,96.28
2022-08-23T06:07:58.179Z,96.08
2022-08-23T06:08:58.965Z,95.93
2022-08-23T06:09:59.528Z,95.83
2022-08-23T06:11:00.368Z,95.83
2022-08-23T06:12:01.190Z,95.83
2022-08-23T06:13:02.018Z,95.93
2022-08-23T06:14:02.905Z,95.83
2022-08-23T06:15:03.682Z,95.72
2022-08-23T06:16:14.918Z,95.57
2022-08-23T06:17:06.238Z,95.47
2022-08-23T06:18:06.063Z,95.47
2022-08-23T06:19:06.884Z,95.37
2022-08-23T06:20:07.746Z,95.37
2022-08-23T06:21:08.555Z,95.37
2022-08-23T06:22:09.388Z,95.23
2022-08-23T06:23:11.250Z,95.02
2022-08-23T06:24:10.913Z,94.51
2022-08-23T06:25:11.737Z,94.30
2022-08-23T06:26:12.576Z,94.51
2022-08-23T06:27:13.404Z,94.26
2022-08-23T06:28:15.133Z,93.85
2022-08-23T06:29:15.002Z,94.26
2022-08-23T06:30:15.772Z,94.26
2022-08-23T06:31:16.740Z,94.32
2022-08-23T06:32:17.598Z,94.42
2022-08-23T06:33:18.413Z,94.01
2022-08-23T06:34:19.210Z,93.49
2022-08-23T06:35:39.813Z,93.25
2022-08-23T06:36:21.790Z,93.86
2022-08-23T06:37:21.592Z,93.86
2022-08-23T06:38:22.422Z,93.15
2022-08-23T06:39:23.258Z,92.90
2022-08-23T06:40:24.146Z,93.51
2022-08-23T06:41:24.984Z,93.71
2022-08-23T06:42:40.989Z,93.82
2022-08-23T06:43:27.570Z,92.69
2022-08-23T06:44:27.376Z,91.87
2022-08-23T06:45:35.074Z,91.97
2022-08-23T06:46:30.007Z,91.26
2022-08-23T06:47:29.803Z,90.91
2022-08-23T06:48:30.633Z,90.91
2022-08-23T06:49:31.468Z,91.31
2022-08-23T06:50:32.646Z,90.86
2022-08-23T06:51:33.184Z,91.48
2022-08-23T06:52:33.996Z,91.69
2022-08-23T06:53:34.816Z,91.85
2022-08-23T06:54:35.653Z,92.25
2022-08-23T06:55:36.241Z,92.05
2022-08-23T06:56:37.061Z,91.13
2022-08-23T06:57:37.890Z,91.33
2022-08-23T06:58:38.721Z,91.23
2022-08-23T06:59:39.549Z,90.88
2022-08-23T07:00:40.460Z,91.29
2022-08-23T07:01:45.598Z,91.70
2022-08-23T07:02:42.258Z,91.19
2022-08-23T07:03:43.039Z,90.88
2022-08-23T07:04:43.881Z,90.74
2022-08-23T07:05:44.711Z,91.05
2022-08-23T07:06:45.540Z,90.80
2022-08-23T07:07:46.360Z,89.78
2022-08-23T07:08:47.190Z,88.45
2022-08-23T07:09:48.011Z,88.61
2022-08-23T07:10:48.865Z,88.47
2022-08-23T07:11:49.685Z,88.78
2022-08-23T07:12:50.518Z,86.69
2022-08-23T07:13:51.333Z,86.45
2022-08-23T07:14:52.172Z,85.90
2022-08-23T07:15:53.048Z,85.00
2022-08-23T07:16:53.841Z,82.73
2022-08-23T07:17:54.668Z,81.57
2022-08-23T07:18:55.497Z,81.39
2022-08-23T07:19:56.316Z,81.76
2022-08-23T07:20:57.157Z,80.26
2022-08-23T07:21:57.975Z,80.12
2022-08-23T07:22:58.818Z,78.93
2022-08-23T07:23:59.635Z,78.59
2022-08-23T07:25:00.464Z,78.15
2022-08-23T07:26:01.295Z,74.54
2022-08-23T07:27:02.124Z,72.99
2022-08-23T07:28:03.038Z,72.95
2022-08-23T07:29:03.801Z,71.91
2022-08-23T07:30:04.626Z,72.48
2022-08-23T07:31:05.464Z,71.84
2022-08-23T07:32:07.203Z,67.77
2022-08-23T07:33:07.282Z,69.85
2022-08-23T07:34:07.659Z,69.35
2022-08-23T07:35:08.495Z,69.01
2022-08-23T07:36:09.330Z,68.48
2022-08-23T07:37:11.588Z,68.44
2022-08-23T07:38:11.875Z,67.31
2022-08-23T07:39:11.704Z,66.67
2022-08-23T07:40:20.200Z,65.97
2022-08-23T07:41:14.261Z,64.53
2022-08-23T07:42:23.306Z,63.70
2022-08-23T07:43:15.811Z,62.69
2022-08-23T07:44:18.021Z,62.79
2022-08-23T07:45:16.242Z,62.56
2022-08-23T07:46:17.123Z,62.36
2022-08-23T07:47:17.919Z,62.36
2022-08-23T07:48:37.104Z,63.17
2022-08-23T07:49:20.468Z,61.66
2022-08-23T07:50:20.318Z,62.03
2022-08-23T07:51:21.139Z,62.03
2022-08-23T07:52:21.969Z,62.73
2022-08-23T07:53:37.415Z,60.39
2022-08-23T07:54:24.517Z,60.69
2022-08-23T07:55:24.347Z,58.18
2022-08-23T07:56:25.177Z,57.76
2022-08-23T07:57:26.036Z,57.28
2022-08-23T07:58:26.833Z,57.89
2022-08-23T07:59:31.443Z,59.16
2022-08-23T08:00:29.401Z,59.66
2022-08-23T08:01:29.262Z,58.46
2022-08-23T08:02:30.102Z,59.66
2022-08-23T08:03:30.917Z,59.74
2022-08-23T08:04:31.722Z,59.33
2022-08-23T08:05:32.546Z,57.33
2022-08-23T08:06:33.387Z,57.60
2022-08-23T08:07:35.396Z,57.90
2022-08-23T08:08:34.944Z,57.40
2022-08-23T08:09:35.776Z,58.81
2022-08-23T08:10:36.628Z,58.87
2022-08-23T08:11:37.447Z,56.17
2022-08-23T08:12:38.273Z,55.47
2022-08-23T08:13:39.102Z,56.74
2022-08-23T08:14:39.938Z,57.24
2022-08-23T08:15:40.801Z,56.65
2022-08-23T08:16:41.605Z,56.85
2022-08-23T08:17:42.441Z,57.17
2022-08-23T08:18:43.311Z,57.28
2022-08-23T08:19:44.108Z,56.67
2022-08-23T08:20:44.939Z,57.48
2022-08-23T08:21:45.780Z,57.68
2022-08-23T08:22:48.544Z,57.57
2022-08-23T08:23:47.242Z,57.98
2022-08-23T08:24:48.083Z,58.78
2022-08-23T08:25:48.946Z,57.78
2022-08-23T08:26:49.745Z,57.57
2022-08-23T08:27:50.575Z,55.50
2022-08-23T08:28:51.403Z,57.20
2022-08-23T08:29:52.232Z,56.50
2022-08-23T08:30:53.122Z,55.00
2022-08-23T08:31:54.541Z,56.93
2022-08-23T08:32:54.419Z,57.03
2022-08-23T08:33:55.289Z,57.63
2022-08-23T08:34:56.094Z,58.53
2022-08-23T08:35:59.351Z,57.66
2022-08-23T08:36:58.989Z,58.36
2022-08-23T08:37:58.462Z,59.46
2022-08-23T08:39:00.730Z,60.06
2022-08-23T08:39:59.786Z,60.36
2022-08-23T08:41:00.595Z,59.06
2022-08-23T08:42:04.280Z,59.86
2022-08-23T08:43:02.360Z,59.66
2022-08-23T08:44:02.715Z,59.86
2022-08-23T08:45:03.572Z,59.96
2022-08-23T08:46:04.239Z,59.96
2022-08-23T08:47:05.038Z,59.77
2022-08-23T08:48:08.275Z,59.36
2022-08-23T08:49:07.586Z,58.13
2022-08-23T08:50:07.417Z,57.03
2022-08-23T08:51:08.065Z,56.83
2022-08-23T08:52:08.892Z,56.23
2022-08-23T08:53:09.720Z,55.43
2022-08-23T08:54:10.553Z,55.63
2022-08-23T08:55:11.377Z,55.55
2022-08-23T08:56:12.266Z,54.35
2022-08-23T08:57:12.813Z,54.55
2022-08-23T08:58:13.617Z,54.65
2022-08-23T08:59:14.440Z,55.35
2022-08-23T09:00:15.272Z,55.15
2022-08-23T09:01:16.162Z,54.75
2022-08-23T09:02:32.002Z,55.25
2022-08-23T09:03:18.748Z,55.45
2022-08-23T09:04:18.512Z,55.75
2022-08-23T09:05:19.393Z,55.55
2022-08-23T09:06:20.215Z,54.77
2022-08-23T09:07:21.037Z,56.18
2022-08-23T09:08:21.871Z,54.97
2022-08-23T09:09:22.709Z,55.58
2022-08-23T09:10:23.528Z,55.98
2022-08-23T09:11:24.411Z,55.28
2022-08-23T09:12:25.214Z,55.08
2022-08-23T09:13:26.049Z,55.18
2022-08-23T09:14:26.873Z,55.20
2022-08-23T09:15:27.701Z,56.30
2022-08-23T09:16:28.768Z,54.90
2022-08-23T09:17:29.175Z,55.60
2022-08-23T09:18:30.007Z,55.20
2022-08-23T09:19:30.875Z,53.80
2022-08-23T09:20:33.416Z,53.59
2022-08-23T09:21:32.564Z,53.70
2022-08-23T09:22:33.399Z,53.09
2022-08-23T09:23:34.225Z,53.20
2022-08-23T09:24:35.054Z,54.60
2022-08-23T09:25:35.882Z,55.51
2022-08-23T09:26:36.727Z,54.38
2022-08-23T09:27:37.551Z,53.97
2022-08-23T09:28:38.388Z,52.07
2022-08-23T09:29:39.212Z,53.07
2022-08-23T09:30:40.034Z,52.97
2022-08-23T09:31:41.006Z,52.77
2022-08-23T09:32:41.796Z,54.07
2022-08-23T09:33:42.625Z,53.27
2022-08-23T09:34:43.464Z,53.67
2022-08-23T09:35:44.284Z,53.67
2022-08-23T09:36:45.155Z,54.07
2022-08-23T09:37:45.977Z,54.68
2022-08-23T09:38:46.804Z,53.07
2022-08-23T09:39:47.667Z,53.27
2022-08-23T09:40:48.463Z,54.07
2022-08-23T09:41:49.301Z,52.37
2022-08-23T09:42:49.811Z,53.57
2022-08-23T09:43:50.637Z,53.37
2022-08-23T09:44:51.453Z,52.04
2022-08-23T09:45:52.291Z,51.26
2022-08-23T09:46:53.114Z,52.04
2022-08-23T09:47:53.943Z,52.04
2022-08-23T09:48:54.772Z,52.04
2022-08-23T09:49:55.712Z,52.55
2022-08-23T09:50:56.559Z,51.84
2022-08-23T09:51:57.388Z,50.63
2022-08-23T09:52:58.267Z,49.33
2022-08-23T09:53:59.077Z,50.34
2022-08-23T09:54:59.907Z,50.13
2022-08-23T09:56:00.736Z,50.44
2022-08-23T09:57:01.582Z,50.13
2022-08-23T09:58:02.408Z,50.44
2022-08-23T09:59:03.232Z,49.13
2022-08-23T10:00:04.058Z,49.13
2022-08-23T10:01:04.880Z,49.74
2022-08-23T10:02:05.770Z,50.63
2022-08-23T10:03:06.574Z,50.34
2022-08-23T10:04:07.404Z,50.34
2022-08-23T10:05:08.277Z,50.84
2022-08-23T10:06:09.947Z,49.84
2022-08-23T10:07:09.838Z,48.23
2022-08-23T10:08:11.051Z,49.54
2022-08-23T10:09:11.340Z,49.84
2022-08-23T10:10:12.160Z,49.74
2022-08-23T10:11:12.997Z,48.73
2022-08-23T10:12:13.640Z,49.21
2022-08-23T10:13:14.466Z,48.13
2022-08-23T10:14:15.296Z,46.93
2022-08-23T10:15:16.185Z,47.23
2022-08-23T10:16:17.079Z,48.13
2022-08-23T10:17:17.935Z,47.93
2022-08-23T10:18:18.766Z,48.43
2022-08-23T10:19:19.596Z,47.23
2022-08-23T10:20:20.461Z,46.73
2022-08-23T10:21:24.121Z,47.43
2022-08-23T10:22:22.131Z,46.73
2022-08-23T10:23:22.965Z,47.33
2022-08-23T10:24:23.789Z,47.23
2022-08-23T10:25:24.641Z,47.63
2022-08-23T10:26:25.462Z,48.51
2022-08-23T10:27:26.313Z,49.21
2022-08-23T10:28:27.124Z,48.01
2022-08-23T10:29:27.954Z,48.41
2022-08-23T10:30:28.772Z,48.81
2022-08-23T10:31:29.626Z,49.21
2022-08-23T10:32:30.445Z,48.31
2022-08-23T10:33:31.305Z,48.91
2022-08-23T10:34:32.112Z,48.01
2022-08-23T10:35:32.936Z,46.91
2022-08-23T10:36:33.771Z,47.11
2022-08-23T10:37:34.605Z,46.20
2022-08-23T10:38:35.436Z,46.00
2022-08-23T10:39:36.309Z,46.91
2022-08-23T10:40:37.116Z,46.81
2022-08-23T10:41:37.941Z,46.91
2022-08-23T10:42:38.879Z,46.81
2022-08-23T10:43:39.651Z,47.00
2022-08-23T10:44:40.469Z,46.70
2022-08-23T10:45:41.304Z,46.81
2022-08-23T10:46:42.152Z,47.81
2022-08-23T10:47:42.973Z,47.11
2022-08-23T10:48:43.808Z,47.31
2022-08-23T10:49:44.627Z,46.70
2022-08-23T10:50:45.461Z,46.00
2022-08-23T10:51:47.176Z,46.50
2022-08-23T10:52:47.020Z,46.20
2022-08-23T10:53:47.830Z,47.11
2022-08-23T10:54:48.663Z,47.11
2022-08-23T10:55:49.488Z,47.50
2022-08-23T10:56:51.133Z,47.91
2022-08-23T10:57:51.167Z,47.61
2022-08-23T10:58:51.988Z,47.88
2022-08-23T10:59:52.808Z,47.88
2022-08-23T11:00:53.644Z,47.58
2022-08-23T11:01:54.551Z,46.18
2022-08-23T11:02:55.444Z,45.68
2022-08-23T11:03:56.243Z,45.38
2022-08-23T11:04:57.073Z,45.68
2022-08-23T11:05:57.904Z,44.88
2022-08-23T11:06:58.734Z,45.08
2022-08-23T11:07:59.591Z,44.28
2022-08-23T11:09:00.407Z,44.18
2022-08-23T11:10:01.238Z,45.28
2022-08-23T11:11:01.877Z,45.88
2022-08-23T11:12:02.707Z,45.68
2022-08-23T11:13:03.377Z,46.58
2022-08-23T11:14:04.386Z,45.08
2022-08-23T11:15:05.161Z,45.58
2022-08-23T11:16:06.055Z,44.68
2022-08-23T11:17:06.857Z,43.48
2022-08-23T11:18:07.687Z,42.57
2022-08-23T11:19:08.517Z,43.08
2022-08-23T11:20:10.233Z,43.18
2022-08-23T11:21:10.070Z,43.18
2022-08-23T11:22:10.893Z,41.88
2022-08-23T11:23:11.732Z,42.47
2022-08-23T11:24:12.562Z,42.77
2022-08-23T11:25:13.392Z,42.97
2022-08-23T11:26:14.212Z,44.78
2022-08-23T11:27:15.055Z,45.48
2022-08-23T11:28:15.974Z,44.76
2022-08-23T11:29:16.802Z,44.76
2022-08-23T11:30:17.623Z,45.46
2022-08-23T11:31:18.477Z,44.96
2022-08-23T11:32:19.293Z,44.86
2022-08-23T11:33:20.126Z,45.06
2022-08-23T11:34:20.984Z,45.76
2022-08-23T11:35:21.552Z,43.85
2022-08-23T11:36:22.386Z,42.55
2022-08-23T11:37:23.484Z,44.16
2022-08-23T11:38:24.850Z,45.54
2022-08-23T11:39:25.265Z,44.34
2022-08-23T11:40:25.376Z,44.54
2022-08-23T11:41:26.163Z,44.93
2022-08-23T11:42:26.993Z,44.84
2022-08-23T11:43:27.834Z,46.04
2022-08-23T11:44:28.648Z,46.64
2022-08-23T11:45:29.477Z,45.74
2022-08-23T11:46:30.403Z,45.84
2022-08-23T11:47:31.229Z,46.64
2022-08-23T11:48:32.047Z,46.24
2022-08-23T11:49:32.878Z,46.14
2022-08-23T11:50:33.705Z,46.34
2022-08-23T11:51:34.534Z,46.64
2022-08-23T11:52:35.424Z,46.94
2022-08-23T11:53:36.217Z,47.24
2022-08-23T11:54:37.042Z,47.24
2022-08-23T11:55:37.892Z,47.44
2022-08-23T11:56:38.708Z,47.44
2022-08-23T11:57:39.545Z,47.42
2022-08-23T11:58:40.386Z,47.72
2022-08-23T11:59:41.881Z,47.72
2022-08-23T12:00:41.744Z,48.22
2022-08-23T12:01:42.575Z,44.71
2022-08-23T12:02:43.872Z,45.62
2022-08-23T12:03:44.677Z,45.12
2022-08-23T12:04:45.216Z,45.21
2022-08-23T12:05:46.076Z,46.42
2022-08-23T12:06:51.059Z,47.81
2022-08-23T12:07:47.730Z,46.42
2022-08-23T12:08:48.560Z,45.62
2022-08-23T12:09:49.385Z,45.21
2022-08-23T12:10:50.221Z,45.01
2022-08-23T12:11:51.066Z,45.92
2022-08-23T12:12:51.913Z,45.01
2022-08-23T12:13:52.756Z,45.62
2022-08-23T12:14:53.581Z,46.01
2022-08-23T12:15:54.461Z,46.59
2022-08-23T12:16:56.856Z,45.20
2022-08-23T12:17:56.265Z,44.29
2022-08-23T12:18:57.024Z,45.92
2022-08-23T12:19:57.589Z,46.30
2022-08-23T12:20:58.146Z,47.60
2022-08-23T12:21:58.933Z,48.39
2022-08-23T12:22:59.788Z,47.09
2022-08-23T12:24:01.370Z,48.10
2022-08-23T12:25:01.302Z,49.29
2022-08-23T12:26:02.141Z,46.69
2022-08-23T12:27:02.958Z,46.69
2022-08-23T12:28:03.802Z,47.39
2022-08-23T12:29:04.632Z,47.69
2022-08-23T12:30:05.486Z,48.49
2022-08-23T12:31:07.959Z,48.29
2022-08-23T12:32:08.003Z,48.57
2022-08-23T12:33:07.833Z,47.77
2022-08-23T12:34:08.666Z,47.69
2022-08-23T12:35:09.500Z,47.19
2022-08-23T12:36:12.438Z,47.39
2022-08-23T12:37:12.041Z,47.49
2022-08-23T12:38:11.882Z,47.39
2022-08-23T12:39:12.712Z,47.30
2022-08-23T12:40:13.638Z,47.19
2022-08-23T12:41:14.409Z,47.30
2022-08-23T12:42:15.235Z,46.27
2022-08-23T12:43:17.553Z,46.17
2022-08-23T12:44:17.790Z,46.37
2022-08-23T12:45:17.621Z,46.50
2022-08-23T12:46:18.518Z,46.89
2022-08-23T12:47:19.298Z,46.50
2022-08-23T12:48:20.139Z,46.80
2022-08-23T12:49:20.972Z,47.09
2022-08-23T12:50:21.794Z,47.37
2022-08-23T12:51:23.548Z,47.17
2022-08-23T12:52:23.348Z,46.17
2022-08-23T12:53:24.187Z,46.57
2022-08-23T12:54:25.016Z,47.07
2022-08-23T12:55:25.847Z,47.07
2022-08-23T12:56:31.317Z,47.27
2022-08-23T12:57:28.393Z,47.17
2022-08-23T12:58:31.650Z,46.47
2022-08-23T12:59:29.943Z,47.07
2022-08-23T13:00:29.785Z,47.47
2022-08-23T13:01:31.151Z,47.07
2022-08-23T13:02:31.573Z,46.57
2022-08-23T13:03:32.383Z,47.17
2022-08-23T13:04:33.222Z,47.07
2022-08-23T13:05:34.044Z,46.57
2022-08-23T13:06:34.873Z,46.87